sensor_id;sensor_type;location;lat;lon;timestamp;P1;durP1;ratioP1;P2;durP2;ratioP2
9698;SDS011;10089;47.876;8.346;2023-07-13T00:00:23;3.08;;;2.10;;
9698;SDS011;10089;47.876;8.346;2023-07-13T00:02:49;2.65;;;1.90;;
9698;SDS011;10089;47.876;8.346;2023-07-13T00:05:14;1.98;;;1.63;;
9698;SDS011;10089;47.876;8.346;2023-07-13T00:07:40;3.00;;;1.73;;
9698;SDS011;10089;47.876;8.346;2023-07-13T00:10:06;3.50;;;2.10;;
9698;SDS011;10089;47.876;8.346;2023-07-13T00:12:34;3.47;;;2.00;;
9698;SDS011;10089;47.876;8.346;2023-07-13T00:15:03;3.55;;;1.92;;
9698;SDS011;10089;47.876;8.346;2023-07-13T00:17:31;3.47;;;2.28;;
9698;SDS011;10089;47.876;8.346;2023-07-13T00:19:57;4.40;;;2.35;;
9698;SDS011;10089;47.876;8.346;2023-07-13T00:22:23;4.28;;;1.98;;
9698;SDS011;10089;47.876;8.346;2023-07-13T00:24:51;1.77;;;1.55;;
9698;SDS011;10089;47.876;8.346;2023-07-13T00:27:18;3.22;;;2.15;;
9698;SDS011;10089;47.876;8.346;2023-07-13T00:29:43;3.85;;;2.00;;
9698;SDS011;10089;47.876;8.346;2023-07-13T00:32:10;2.40;;;2.00;;
9698;SDS011;10089;47.876;8.346;2023-07-13T00:34:36;3.47;;;1.83;;
9698;SDS011;10089;47.876;8.346;2023-07-13T00:37:03;4.28;;;1.63;;
9698;SDS011;10089;47.876;8.346;2023-07-13T00:39:31;3.42;;;1.90;;
9698;SDS011;10089;47.876;8.346;2023-07-13T00:41:58;2.55;;;1.80;;
9698;SDS011;10089;47.876;8.346;2023-07-13T00:44:24;3.03;;;1.85;;
9698;SDS011;10089;47.876;8.346;2023-07-13T00:46:50;1.95;;;1.55;;
9698;SDS011;10089;47.876;8.346;2023-07-13T00:49:16;3.60;;;1.77;;
9698;SDS011;10089;47.876;8.346;2023-07-13T00:51:46;4.78;;;1.70;;
9698;SDS011;10089;47.876;8.346;2023-07-13T00:54:18;3.65;;;1.80;;
9698;SDS011;10089;47.876;8.346;2023-07-13T00:56:52;2.63;;;1.73;;
9698;SDS011;10089;47.876;8.346;2023-07-13T00:59:20;1.90;;;1.75;;
9698;SDS011;10089;47.876;8.346;2023-07-13T01:01:47;2.97;;;1.67;;
9698;SDS011;10089;47.876;8.346;2023-07-13T01:04:13;2.30;;;1.50;;
9698;SDS011;10089;47.876;8.346;2023-07-13T01:06:39;4.90;;;1.85;;
9698;SDS011;10089;47.876;8.346;2023-07-13T01:09:06;2.38;;;1.70;;
9698;SDS011;10089;47.876;8.346;2023-07-13T01:11:33;1.45;;;1.25;;
9698;SDS011;10089;47.876;8.346;2023-07-13T01:14:00;4.07;;;1.77;;
9698;SDS011;10089;47.876;8.346;2023-07-13T01:16:30;5.10;;;1.52;;
9698;SDS011;10089;47.876;8.346;2023-07-13T01:18:58;4.72;;;1.90;;
9698;SDS011;10089;47.876;8.346;2023-07-13T01:21:26;6.20;;;1.75;;
9698;SDS011;10089;47.876;8.346;2023-07-13T01:23:52;3.42;;;1.67;;
9698;SDS011;10089;47.876;8.346;2023-07-13T01:26:18;2.70;;;1.60;;
9698;SDS011;10089;47.876;8.346;2023-07-13T01:28:43;1.83;;;1.60;;
9698;SDS011;10089;47.876;8.346;2023-07-13T01:31:09;2.55;;;1.80;;
9698;SDS011;10089;47.876;8.346;2023-07-13T01:33:37;1.63;;;1.50;;
9698;SDS011;10089;47.876;8.346;2023-07-13T01:36:04;3.97;;;1.60;;
9698;SDS011;10089;47.876;8.346;2023-07-13T01:38:31;6.68;;;1.63;;
9698;SDS011;10089;47.876;8.346;2023-07-13T01:40:59;2.63;;;1.70;;
9698;SDS011;10089;47.876;8.346;2023-07-13T01:43:24;2.65;;;1.80;;
9698;SDS011;10089;47.876;8.346;2023-07-13T01:45:50;2.53;;;1.60;;
9698;SDS011;10089;47.876;8.346;2023-07-13T01:48:15;2.80;;;1.52;;
9698;SDS011;10089;47.876;8.346;2023-07-13T01:50:41;2.72;;;1.75;;
9698;SDS011;10089;47.876;8.346;2023-07-13T01:53:07;3.05;;;1.60;;
9698;SDS011;10089;47.876;8.346;2023-07-13T01:55:34;2.05;;;1.60;;
9698;SDS011;10089;47.876;8.346;2023-07-13T01:58:00;2.08;;;1.75;;
9698;SDS011;10089;47.876;8.346;2023-07-13T02:00:26;5.38;;;1.45;;
9698;SDS011;10089;47.876;8.346;2023-07-13T02:02:51;2.15;;;1.60;;
9698;SDS011;10089;47.876;8.346;2023-07-13T02:05:17;4.07;;;1.58;;
9698;SDS011;10089;47.876;8.346;2023-07-13T02:07:43;2.80;;;1.65;;
9698;SDS011;10089;47.876;8.346;2023-07-13T02:10:09;2.40;;;1.42;;
9698;SDS011;10089;47.876;8.346;2023-07-13T02:12:35;3.15;;;1.58;;
9698;SDS011;10089;47.876;8.346;2023-07-13T02:15:02;1.42;;;1.20;;
9698;SDS011;10089;47.876;8.346;2023-07-13T02:17:29;2.65;;;1.48;;
9698;SDS011;10089;47.876;8.346;2023-07-13T02:19:54;1.58;;;1.25;;
9698;SDS011;10089;47.876;8.346;2023-07-13T02:22:20;2.22;;;1.63;;
9698;SDS011;10089;47.876;8.346;2023-07-13T02:24:47;2.33;;;1.40;;
9698;SDS011;10089;47.876;8.346;2023-07-13T02:27:12;5.80;;;1.60;;
9698;SDS011;10089;47.876;8.346;2023-07-13T02:29:38;2.35;;;1.40;;
9698;SDS011;10089;47.876;8.346;2023-07-13T02:32:04;3.67;;;1.20;;
9698;SDS011;10089;47.876;8.346;2023-07-13T02:34:30;2.13;;;1.50;;
9698;SDS011;10089;47.876;8.346;2023-07-13T02:36:56;2.10;;;1.33;;
9698;SDS011;10089;47.876;8.346;2023-07-13T02:39:22;1.98;;;1.30;;
9698;SDS011;10089;47.876;8.346;2023-07-13T02:41:47;1.88;;;1.08;;
9698;SDS011;10089;47.876;8.346;2023-07-13T02:44:13;2.10;;;1.60;;
9698;SDS011;10089;47.876;8.346;2023-07-13T02:46:39;1.83;;;1.50;;
9698;SDS011;10089;47.876;8.346;2023-07-13T02:49:05;3.85;;;1.55;;
9698;SDS011;10089;47.876;8.346;2023-07-13T02:51:31;2.63;;;1.58;;
9698;SDS011;10089;47.876;8.346;2023-07-13T02:53:59;1.92;;;1.33;;
9698;SDS011;10089;47.876;8.346;2023-07-13T02:56:26;6.93;;;1.60;;
9698;SDS011;10089;47.876;8.346;2023-07-13T02:58:53;1.98;;;1.50;;
9698;SDS011;10089;47.876;8.346;2023-07-13T03:01:20;3.17;;;1.17;;
9698;SDS011;10089;47.876;8.346;2023-07-13T03:03:46;3.25;;;1.35;;
9698;SDS011;10089;47.876;8.346;2023-07-13T03:06:13;3.80;;;1.45;;
9698;SDS011;10089;47.876;8.346;2023-07-13T03:08:42;2.08;;;1.52;;
9698;SDS011;10089;47.876;8.346;2023-07-13T03:11:10;1.67;;;1.38;;
9698;SDS011;10089;47.876;8.346;2023-07-13T03:13:41;2.20;;;1.40;;
9698;SDS011;10089;47.876;8.346;2023-07-13T03:16:07;5.03;;;1.30;;
9698;SDS011;10089;47.876;8.346;2023-07-13T03:18:35;4.07;;;1.20;;
9698;SDS011;10089;47.876;8.346;2023-07-13T03:21:01;3.67;;;1.52;;
9698;SDS011;10089;47.876;8.346;2023-07-13T03:23:26;2.53;;;1.30;;
9698;SDS011;10089;47.876;8.346;2023-07-13T03:28:47;2.78;;;1.50;;
9698;SDS011;10089;47.876;8.346;2023-07-13T03:31:17;1.70;;;1.15;;
9698;SDS011;10089;47.876;8.346;2023-07-13T03:33:45;2.50;;;1.73;;
9698;SDS011;10089;47.876;8.346;2023-07-13T03:36:15;1.92;;;1.33;;
9698;SDS011;10089;47.876;8.346;2023-07-13T03:38:44;2.50;;;1.35;;
9698;SDS011;10089;47.876;8.346;2023-07-13T03:41:17;3.15;;;1.60;;
9698;SDS011;10089;47.876;8.346;2023-07-13T03:43:43;3.22;;;1.52;;
9698;SDS011;10089;47.876;8.346;2023-07-13T03:46:09;2.25;;;1.13;;
9698;SDS011;10089;47.876;8.346;2023-07-13T03:48:35;1.77;;;1.30;;
9698;SDS011;10089;47.876;8.346;2023-07-13T03:51:00;3.35;;;1.55;;
9698;SDS011;10089;47.876;8.346;2023-07-13T03:53:26;5.43;;;1.30;;
9698;SDS011;10089;47.876;8.346;2023-07-13T03:55:52;1.95;;;1.38;;
9698;SDS011;10089;47.876;8.346;2023-07-13T04:00:51;4.70;;;1.50;;
9698;SDS011;10089;47.876;8.346;2023-07-13T04:03:18;2.33;;;1.52;;
9698;SDS011;10089;47.876;8.346;2023-07-13T04:05:44;2.05;;;1.35;;
9698;SDS011;10089;47.876;8.346;2023-07-13T04:08:09;3.63;;;1.42;;
9698;SDS011;10089;47.876;8.346;2023-07-13T04:10:35;4.88;;;1.35;;
9698;SDS011;10089;47.876;8.346;2023-07-13T04:13:00;2.03;;;1.50;;
9698;SDS011;10089;47.876;8.346;2023-07-13T04:15:29;1.63;;;1.40;;
9698;SDS011;10089;47.876;8.346;2023-07-13T04:17:55;3.03;;;1.40;;
9698;SDS011;10089;47.876;8.346;2023-07-13T04:20:21;4.50;;;1.50;;
9698;SDS011;10089;47.876;8.346;2023-07-13T04:22:46;2.60;;;1.40;;
9698;SDS011;10089;47.876;8.346;2023-07-13T04:25:12;2.17;;;1.33;;
9698;SDS011;10089;47.876;8.346;2023-07-13T04:27:37;2.30;;;1.60;;
9698;SDS011;10089;47.876;8.346;2023-07-13T04:30:04;3.63;;;1.42;;
9698;SDS011;10089;47.876;8.346;2023-07-13T04:32:31;2.45;;;1.50;;
9698;SDS011;10089;47.876;8.346;2023-07-13T04:34:57;2.92;;;1.55;;
9698;SDS011;10089;47.876;8.346;2023-07-13T04:37:24;3.45;;;1.70;;
9698;SDS011;10089;47.876;8.346;2023-07-13T04:39:51;2.05;;;1.30;;
9698;SDS011;10089;47.876;8.346;2023-07-13T04:42:17;3.33;;;1.40;;
9698;SDS011;10089;47.876;8.346;2023-07-13T04:44:47;3.67;;;1.50;;
9698;SDS011;10089;47.876;8.346;2023-07-13T04:47:16;1.75;;;1.23;;
9698;SDS011;10089;47.876;8.346;2023-07-13T04:49:42;2.72;;;1.65;;
9698;SDS011;10089;47.876;8.346;2023-07-13T04:52:09;5.25;;;1.80;;
9698;SDS011;10089;47.876;8.346;2023-07-13T04:54:34;2.75;;;1.40;;
9698;SDS011;10089;47.876;8.346;2023-07-13T04:57:00;4.45;;;1.80;;
9698;SDS011;10089;47.876;8.346;2023-07-13T04:59:26;2.53;;;1.67;;
9698;SDS011;10089;47.876;8.346;2023-07-13T05:01:52;2.25;;;1.50;;
9698;SDS011;10089;47.876;8.346;2023-07-13T05:04:18;1.52;;;1.40;;
9698;SDS011;10089;47.876;8.346;2023-07-13T05:06:44;3.28;;;1.67;;
9698;SDS011;10089;47.876;8.346;2023-07-13T05:09:09;2.35;;;1.50;;
9698;SDS011;10089;47.876;8.346;2023-07-13T05:11:35;1.60;;;1.40;;
9698;SDS011;10089;47.876;8.346;2023-07-13T05:14:00;3.55;;;1.33;;
9698;SDS011;10089;47.876;8.346;2023-07-13T05:16:26;2.17;;;1.48;;
9698;SDS011;10089;47.876;8.346;2023-07-13T05:18:52;3.97;;;1.67;;
9698;SDS011;10089;47.876;8.346;2023-07-13T05:21:18;2.47;;;1.55;;
9698;SDS011;10089;47.876;8.346;2023-07-13T05:23:44;5.85;;;1.30;;
9698;SDS011;10089;47.876;8.346;2023-07-13T05:26:10;3.45;;;1.50;;
9698;SDS011;10089;47.876;8.346;2023-07-13T05:28:36;5.95;;;1.60;;
9698;SDS011;10089;47.876;8.346;2023-07-13T05:31:02;3.10;;;1.33;;
9698;SDS011;10089;47.876;8.346;2023-07-13T05:33:28;3.80;;;1.55;;
9698;SDS011;10089;47.876;8.346;2023-07-13T05:35:54;3.58;;;1.75;;
9698;SDS011;10089;47.876;8.346;2023-07-13T05:38:19;4.03;;;1.60;;
9698;SDS011;10089;47.876;8.346;2023-07-13T05:40:46;4.22;;;1.50;;
9698;SDS011;10089;47.876;8.346;2023-07-13T05:43:12;5.53;;;1.88;;
9698;SDS011;10089;47.876;8.346;2023-07-13T05:45:38;2.13;;;1.40;;
9698;SDS011;10089;47.876;8.346;2023-07-13T05:48:04;2.85;;;1.65;;
9698;SDS011;10089;47.876;8.346;2023-07-13T05:50:30;6.47;;;1.40;;
9698;SDS011;10089;47.876;8.346;2023-07-13T05:52:55;2.30;;;1.40;;
9698;SDS011;10089;47.876;8.346;2023-07-13T05:55:21;3.53;;;1.70;;
9698;SDS011;10089;47.876;8.346;2023-07-13T05:57:47;3.30;;;1.30;;
9698;SDS011;10089;47.876;8.346;2023-07-13T06:00:13;4.95;;;1.50;;
9698;SDS011;10089;47.876;8.346;2023-07-13T06:02:38;4.10;;;1.40;;
9698;SDS011;10089;47.876;8.346;2023-07-13T06:05:04;6.38;;;1.83;;
9698;SDS011;10089;47.876;8.346;2023-07-13T06:07:30;5.05;;;1.60;;
9698;SDS011;10089;47.876;8.346;2023-07-13T06:09:56;7.20;;;1.50;;
9698;SDS011;10089;47.876;8.346;2023-07-13T06:12:21;2.70;;;1.40;;
9698;SDS011;10089;47.876;8.346;2023-07-13T06:14:47;5.20;;;1.60;;
9698;SDS011;10089;47.876;8.346;2023-07-13T06:17:13;3.05;;;1.35;;
9698;SDS011;10089;47.876;8.346;2023-07-13T06:19:38;2.13;;;1.40;;
9698;SDS011;10089;47.876;8.346;2023-07-13T06:22:04;1.42;;;1.20;;
9698;SDS011;10089;47.876;8.346;2023-07-13T06:24:30;6.88;;;2.20;;
9698;SDS011;10089;47.876;8.346;2023-07-13T06:26:55;3.97;;;1.60;;
9698;SDS011;10089;47.876;8.346;2023-07-13T06:29:21;3.30;;;1.60;;
9698;SDS011;10089;47.876;8.346;2023-07-13T06:31:47;3.28;;;1.67;;
9698;SDS011;10089;47.876;8.346;2023-07-13T06:34:12;2.90;;;1.67;;
9698;SDS011;10089;47.876;8.346;2023-07-13T06:36:38;2.50;;;1.95;;
9698;SDS011;10089;47.876;8.346;2023-07-13T06:39:03;3.20;;;1.73;;
9698;SDS011;10089;47.876;8.346;2023-07-13T06:41:30;3.30;;;1.60;;
9698;SDS011;10089;47.876;8.346;2023-07-13T06:43:56;2.38;;;1.50;;
9698;SDS011;10089;47.876;8.346;2023-07-13T06:46:22;3.95;;;1.50;;
9698;SDS011;10089;47.876;8.346;2023-07-13T06:48:48;5.07;;;1.60;;
9698;SDS011;10089;47.876;8.346;2023-07-13T06:51:13;3.28;;;1.63;;
9698;SDS011;10089;47.876;8.346;2023-07-13T06:53:39;2.50;;;1.50;;
9698;SDS011;10089;47.876;8.346;2023-07-13T06:56:05;3.38;;;1.80;;
9698;SDS011;10089;47.876;8.346;2023-07-13T06:58:31;4.45;;;1.67;;
9698;SDS011;10089;47.876;8.346;2023-07-13T07:00:58;3.95;;;1.48;;
9698;SDS011;10089;47.876;8.346;2023-07-13T07:03:24;3.95;;;1.60;;
9698;SDS011;10089;47.876;8.346;2023-07-13T07:05:49;2.70;;;1.48;;
9698;SDS011;10089;47.876;8.346;2023-07-13T07:08:15;3.83;;;1.60;;
9698;SDS011;10089;47.876;8.346;2023-07-13T07:10:40;5.38;;;1.70;;
9698;SDS011;10089;47.876;8.346;2023-07-13T07:13:07;2.33;;;1.40;;
9698;SDS011;10089;47.876;8.346;2023-07-13T07:15:33;5.75;;;1.80;;
9698;SDS011;10089;47.876;8.346;2023-07-13T07:17:59;5.35;;;1.60;;
9698;SDS011;10089;47.876;8.346;2023-07-13T07:20:25;3.17;;;1.70;;
9698;SDS011;10089;47.876;8.346;2023-07-13T07:22:51;4.50;;;2.17;;
9698;SDS011;10089;47.876;8.346;2023-07-13T07:25:17;3.90;;;1.70;;
9698;SDS011;10089;47.876;8.346;2023-07-13T07:27:43;3.90;;;1.60;;
9698;SDS011;10089;47.876;8.346;2023-07-13T07:30:10;2.13;;;1.40;;
9698;SDS011;10089;47.876;8.346;2023-07-13T07:32:36;4.15;;;1.95;;
9698;SDS011;10089;47.876;8.346;2023-07-13T07:35:02;3.13;;;1.80;;
9698;SDS011;10089;47.876;8.346;2023-07-13T07:37:27;5.40;;;2.08;;
9698;SDS011;10089;47.876;8.346;2023-07-13T07:39:53;3.20;;;1.65;;
9698;SDS011;10089;47.876;8.346;2023-07-13T07:42:18;3.22;;;1.52;;
9698;SDS011;10089;47.876;8.346;2023-07-13T07:44:44;3.20;;;1.50;;
9698;SDS011;10089;47.876;8.346;2023-07-13T07:47:10;3.45;;;1.70;;
9698;SDS011;10089;47.876;8.346;2023-07-13T07:49:36;3.30;;;1.73;;
9698;SDS011;10089;47.876;8.346;2023-07-13T07:52:01;1.77;;;1.58;;
9698;SDS011;10089;47.876;8.346;2023-07-13T07:54:27;5.05;;;1.58;;
9698;SDS011;10089;47.876;8.346;2023-07-13T07:56:53;6.25;;;2.13;;
9698;SDS011;10089;47.876;8.346;2023-07-13T07:59:18;5.97;;;2.30;;
9698;SDS011;10089;47.876;8.346;2023-07-13T08:01:44;6.38;;;1.50;;
9698;SDS011;10089;47.876;8.346;2023-07-13T08:04:11;4.28;;;1.80;;
9698;SDS011;10089;47.876;8.346;2023-07-13T08:06:37;4.18;;;1.70;;
9698;SDS011;10089;47.876;8.346;2023-07-13T08:09:03;4.88;;;2.05;;
9698;SDS011;10089;47.876;8.346;2023-07-13T08:11:29;1.85;;;1.48;;
9698;SDS011;10089;47.876;8.346;2023-07-13T08:13:55;2.60;;;1.50;;
9698;SDS011;10089;47.876;8.346;2023-07-13T08:16:21;5.65;;;1.60;;
9698;SDS011;10089;47.876;8.346;2023-07-13T08:18:47;3.08;;;1.90;;
9698;SDS011;10089;47.876;8.346;2023-07-13T08:21:12;2.60;;;1.70;;
9698;SDS011;10089;47.876;8.346;2023-07-13T08:23:38;5.05;;;1.40;;
9698;SDS011;10089;47.876;8.346;2023-07-13T08:26:04;7.30;;;1.65;;
9698;SDS011;10089;47.876;8.346;2023-07-13T08:28:30;4.15;;;1.70;;
9698;SDS011;10089;47.876;8.346;2023-07-13T08:31:01;3.78;;;1.60;;
9698;SDS011;10089;47.876;8.346;2023-07-13T08:33:30;2.92;;;1.52;;
9698;SDS011;10089;47.876;8.346;2023-07-13T08:35:56;11.32;;;1.70;;
9698;SDS011;10089;47.876;8.346;2023-07-13T08:38:22;1.60;;;1.23;;
9698;SDS011;10089;47.876;8.346;2023-07-13T08:40:50;2.85;;;1.40;;
9698;SDS011;10089;47.876;8.346;2023-07-13T08:43:19;5.20;;;1.70;;
9698;SDS011;10089;47.876;8.346;2023-07-13T08:45:51;2.03;;;1.40;;
9698;SDS011;10089;47.876;8.346;2023-07-13T08:48:26;3.78;;;1.70;;
9698;SDS011;10089;47.876;8.346;2023-07-13T08:53:38;5.55;;;1.60;;
9698;SDS011;10089;47.876;8.346;2023-07-13T08:56:16;3.33;;;1.50;;
9698;SDS011;10089;47.876;8.346;2023-07-13T08:58:44;1.67;;;1.30;;
9698;SDS011;10089;47.876;8.346;2023-07-13T09:04:11;5.25;;;1.52;;
9698;SDS011;10089;47.876;8.346;2023-07-13T09:12:14;4.75;;;1.77;;
9698;SDS011;10089;47.876;8.346;2023-07-13T09:15:01;3.40;;;1.40;;
9698;SDS011;10089;47.876;8.346;2023-07-13T09:17:32;3.63;;;1.30;;
9698;SDS011;10089;47.876;8.346;2023-07-13T09:22:53;2.30;;;1.23;;
9698;SDS011;10089;47.876;8.346;2023-07-13T09:25:34;3.35;;;1.27;;
9698;SDS011;10089;47.876;8.346;2023-07-13T09:28:24;2.45;;;1.25;;
9698;SDS011;10089;47.876;8.346;2023-07-13T09:31:06;2.17;;;1.70;;
9698;SDS011;10089;47.876;8.346;2023-07-13T09:33:37;2.28;;;1.40;;
9698;SDS011;10089;47.876;8.346;2023-07-13T09:36:14;2.45;;;1.58;;
9698;SDS011;10089;47.876;8.346;2023-07-13T09:38:58;5.50;;;1.67;;
9698;SDS011;10089;47.876;8.346;2023-07-13T09:41:36;4.25;;;1.90;;
9698;SDS011;10089;47.876;8.346;2023-07-13T09:44:18;8.38;;;1.80;;
9698;SDS011;10089;47.876;8.346;2023-07-13T09:47:00;2.20;;;1.60;;
9698;SDS011;10089;47.876;8.346;2023-07-13T09:49:28;2.72;;;1.80;;
9698;SDS011;10089;47.876;8.346;2023-07-13T09:54:28;2.13;;;1.65;;
9698;SDS011;10089;47.876;8.346;2023-07-13T09:56:58;4.35;;;1.70;;
9698;SDS011;10089;47.876;8.346;2023-07-13T09:59:27;3.65;;;2.00;;
9698;SDS011;10089;47.876;8.346;2023-07-13T10:01:56;4.75;;;2.30;;
9698;SDS011;10089;47.876;8.346;2023-07-13T10:04:27;5.32;;;2.08;;
9698;SDS011;10089;47.876;8.346;2023-07-13T10:07:05;2.70;;;1.80;;
9698;SDS011;10089;47.876;8.346;2023-07-13T10:09:32;5.22;;;1.67;;
9698;SDS011;10089;47.876;8.346;2023-07-13T10:11:58;2.85;;;1.27;;
9698;SDS011;10089;47.876;8.346;2023-07-13T10:14:24;2.25;;;1.42;;
9698;SDS011;10089;47.876;8.346;2023-07-13T10:16:52;4.32;;;1.98;;
9698;SDS011;10089;47.876;8.346;2023-07-13T10:19:24;3.10;;;1.55;;
9698;SDS011;10089;47.876;8.346;2023-07-13T10:22:00;3.72;;;1.45;;
9698;SDS011;10089;47.876;8.346;2023-07-13T10:24:46;2.70;;;1.33;;
9698;SDS011;10089;47.876;8.346;2023-07-13T10:27:16;2.22;;;1.40;;
9698;SDS011;10089;47.876;8.346;2023-07-13T10:29:46;4.43;;;1.75;;
9698;SDS011;10089;47.876;8.346;2023-07-13T10:32:37;2.40;;;2.20;;
9698;SDS011;10089;47.876;8.346;2023-07-13T10:35:03;4.20;;;1.80;;
9698;SDS011;10089;47.876;8.346;2023-07-13T10:37:34;3.83;;;1.83;;
9698;SDS011;10089;47.876;8.346;2023-07-13T10:40:11;3.53;;;1.83;;
9698;SDS011;10089;47.876;8.346;2023-07-13T10:42:44;6.75;;;1.98;;
9698;SDS011;10089;47.876;8.346;2023-07-13T10:45:20;2.83;;;1.80;;
9698;SDS011;10089;47.876;8.346;2023-07-13T10:47:48;4.13;;;1.98;;
9698;SDS011;10089;47.876;8.346;2023-07-13T10:50:21;2.45;;;1.92;;
9698;SDS011;10089;47.876;8.346;2023-07-13T10:52:54;3.20;;;1.80;;
9698;SDS011;10089;47.876;8.346;2023-07-13T10:55:32;2.35;;;1.63;;
9698;SDS011;10089;47.876;8.346;2023-07-13T10:58:11;2.55;;;1.90;;
9698;SDS011;10089;47.876;8.346;2023-07-13T11:00:57;2.30;;;1.60;;
9698;SDS011;10089;47.876;8.346;2023-07-13T11:03:28;2.20;;;1.70;;
9698;SDS011;10089;47.876;8.346;2023-07-13T11:08:56;2.55;;;1.92;;
9698;SDS011;10089;47.876;8.346;2023-07-13T11:14:05;4.07;;;2.10;;
9698;SDS011;10089;47.876;8.346;2023-07-13T11:16:50;4.63;;;2.40;;
9698;SDS011;10089;47.876;8.346;2023-07-13T11:24:50;3.55;;;2.10;;
9698;SDS011;10089;47.876;8.346;2023-07-13T11:27:49;2.55;;;1.67;;
9698;SDS011;10089;47.876;8.346;2023-07-13T11:30:24;2.55;;;1.40;;
9698;SDS011;10089;47.876;8.346;2023-07-13T11:43:54;3.55;;;1.30;;
9698;SDS011;10089;47.876;8.346;2023-07-13T11:46:27;4.63;;;1.45;;
9698;SDS011;10089;47.876;8.346;2023-07-13T11:48:53;2.05;;;1.15;;
9698;SDS011;10089;47.876;8.346;2023-07-13T11:51:32;3.35;;;1.42;;
9698;SDS011;10089;47.876;8.346;2023-07-13T11:54:01;2.22;;;1.13;;
9698;SDS011;10089;47.876;8.346;2023-07-13T11:56:29;1.92;;;1.27;;
9698;SDS011;10089;47.876;8.346;2023-07-13T11:58:57;3.60;;;1.25;;
9698;SDS011;10089;47.876;8.346;2023-07-13T12:01:30;3.13;;;1.42;;
9698;SDS011;10089;47.876;8.346;2023-07-13T12:03:57;3.83;;;1.13;;
9698;SDS011;10089;47.876;8.346;2023-07-13T12:08:57;3.38;;;1.30;;
9698;SDS011;10089;47.876;8.346;2023-07-13T12:11:24;2.53;;;1.17;;
9698;SDS011;10089;47.876;8.346;2023-07-13T12:13:49;2.03;;;1.40;;
9698;SDS011;10089;47.876;8.346;2023-07-13T12:16:33;2.45;;;1.30;;
9698;SDS011;10089;47.876;8.346;2023-07-13T12:19:00;1.80;;;1.25;;
9698;SDS011;10089;47.876;8.346;2023-07-13T12:21:31;2.85;;;1.30;;
9698;SDS011;10089;47.876;8.346;2023-07-13T12:24:00;2.00;;;1.35;;
9698;SDS011;10089;47.876;8.346;2023-07-13T12:26:29;2.45;;;1.20;;
9698;SDS011;10089;47.876;8.346;2023-07-13T12:28:56;4.82;;;1.40;;
9698;SDS011;10089;47.876;8.346;2023-07-13T12:31:25;2.38;;;1.30;;
9698;SDS011;10089;47.876;8.346;2023-07-13T12:34:10;3.67;;;1.33;;
9698;SDS011;10089;47.876;8.346;2023-07-13T12:36:38;3.35;;;1.48;;
9698;SDS011;10089;47.876;8.346;2023-07-13T12:39:14;4.07;;;1.17;;
9698;SDS011;10089;47.876;8.346;2023-07-13T12:44:58;2.50;;;1.45;;
9698;SDS011;10089;47.876;8.346;2023-07-13T12:47:27;3.38;;;1.30;;
9698;SDS011;10089;47.876;8.346;2023-07-13T12:49:55;1.48;;;1.25;;
9698;SDS011;10089;47.876;8.346;2023-07-13T12:52:31;4.82;;;1.25;;
9698;SDS011;10089;47.876;8.346;2023-07-13T12:55:03;3.33;;;1.38;;
9698;SDS011;10089;47.876;8.346;2023-07-13T12:57:43;3.35;;;1.50;;
9698;SDS011;10089;47.876;8.346;2023-07-13T13:03:07;3.05;;;1.35;;
9698;SDS011;10089;47.876;8.346;2023-07-13T13:05:45;4.18;;;1.58;;
9698;SDS011;10089;47.876;8.346;2023-07-13T13:08:11;4.05;;;1.38;;
9698;SDS011;10089;47.876;8.346;2023-07-13T13:10:37;1.52;;;1.30;;
9698;SDS011;10089;47.876;8.346;2023-07-13T13:13:03;4.20;;;1.10;;
9698;SDS011;10089;47.876;8.346;2023-07-13T13:15:28;5.05;;;1.63;;
9698;SDS011;10089;47.876;8.346;2023-07-13T13:17:55;3.72;;;1.67;;
9698;SDS011;10089;47.876;8.346;2023-07-13T13:20:21;3.20;;;1.38;;
9698;SDS011;10089;47.876;8.346;2023-07-13T13:22:48;2.55;;;1.40;;
9698;SDS011;10089;47.876;8.346;2023-07-13T13:25:14;2.15;;;1.33;;
9698;SDS011;10089;47.876;8.346;2023-07-13T13:27:40;2.88;;;1.33;;
9698;SDS011;10089;47.876;8.346;2023-07-13T13:30:17;1.48;;;1.20;;
9698;SDS011;10089;47.876;8.346;2023-07-13T13:32:43;1.88;;;1.05;;
9698;SDS011;10089;47.876;8.346;2023-07-13T13:35:15;2.13;;;1.25;;
9698;SDS011;10089;47.876;8.346;2023-07-13T13:37:42;1.50;;;1.10;;
9698;SDS011;10089;47.876;8.346;2023-07-13T13:40:15;2.13;;;1.00;;
9698;SDS011;10089;47.876;8.346;2023-07-13T13:42:42;2.50;;;1.13;;
9698;SDS011;10089;47.876;8.346;2023-07-13T13:45:11;2.45;;;1.45;;
9698;SDS011;10089;47.876;8.346;2023-07-13T13:47:37;1.58;;;1.13;;
9698;SDS011;10089;47.876;8.346;2023-07-13T13:50:27;1.35;;;1.10;;
9698;SDS011;10089;47.876;8.346;2023-07-13T13:52:50;1.77;;;1.15;;
9698;SDS011;10089;47.876;8.346;2023-07-13T13:55:20;2.28;;;1.35;;
9698;SDS011;10089;47.876;8.346;2023-07-13T13:57:47;2.35;;;1.10;;
9698;SDS011;10089;47.876;8.346;2023-07-13T14:00:13;3.33;;;1.10;;
9698;SDS011;10089;47.876;8.346;2023-07-13T14:02:42;2.35;;;1.20;;
9698;SDS011;10089;47.876;8.346;2023-07-13T14:05:13;1.92;;;1.20;;
9698;SDS011;10089;47.876;8.346;2023-07-13T14:07:40;2.50;;;1.20;;
9698;SDS011;10089;47.876;8.346;2023-07-13T14:10:14;2.17;;;1.00;;
9698;SDS011;10089;47.876;8.346;2023-07-13T14:12:44;1.77;;;1.20;;
9698;SDS011;10089;47.876;8.346;2023-07-13T14:15:20;1.88;;;1.20;;
9698;SDS011;10089;47.876;8.346;2023-07-13T14:17:48;1.17;;;1.08;;
9698;SDS011;10089;47.876;8.346;2023-07-13T14:20:15;1.60;;;1.20;;
9698;SDS011;10089;47.876;8.346;2023-07-13T14:22:42;2.42;;;1.10;;
9698;SDS011;10089;47.876;8.346;2023-07-13T14:25:13;2.80;;;1.48;;
9698;SDS011;10089;47.876;8.346;2023-07-13T14:27:40;1.77;;;1.30;;
9698;SDS011;10089;47.876;8.346;2023-07-13T14:30:21;4.43;;;1.30;;
9698;SDS011;10089;47.876;8.346;2023-07-13T14:32:47;2.30;;;1.45;;
9698;SDS011;10089;47.876;8.346;2023-07-13T14:35:14;1.80;;;1.15;;
9698;SDS011;10089;47.876;8.346;2023-07-13T14:37:42;5.25;;;1.33;;
9698;SDS011;10089;47.876;8.346;2023-07-13T14:40:16;3.22;;;1.38;;
9698;SDS011;10089;47.876;8.346;2023-07-13T14:42:51;4.75;;;1.40;;
9698;SDS011;10089;47.876;8.346;2023-07-13T14:45:18;1.45;;;1.00;;
9698;SDS011;10089;47.876;8.346;2023-07-13T14:47:45;1.63;;;1.08;;
9698;SDS011;10089;47.876;8.346;2023-07-13T14:50:15;1.10;;;1.00;;
9698;SDS011;10089;47.876;8.346;2023-07-13T14:52:43;2.92;;;1.38;;
9698;SDS011;10089;47.876;8.346;2023-07-13T14:55:10;3.72;;;1.25;;
9698;SDS011;10089;47.876;8.346;2023-07-13T14:57:41;2.65;;;1.00;;
9698;SDS011;10089;47.876;8.346;2023-07-13T15:00:14;1.00;;;0.90;;
9698;SDS011;10089;47.876;8.346;2023-07-13T15:02:45;1.10;;;1.05;;
9698;SDS011;10089;47.876;8.346;2023-07-13T15:05:22;1.10;;;0.90;;
9698;SDS011;10089;47.876;8.346;2023-07-13T15:07:50;1.67;;;1.15;;
9698;SDS011;10089;47.876;8.346;2023-07-13T15:10:17;4.57;;;1.20;;
9698;SDS011;10089;47.876;8.346;2023-07-13T15:12:45;3.40;;;0.93;;
9698;SDS011;10089;47.876;8.346;2023-07-13T15:15:11;1.88;;;1.30;;
9698;SDS011;10089;47.876;8.346;2023-07-13T15:17:39;1.30;;;1.10;;
9698;SDS011;10089;47.876;8.346;2023-07-13T15:20:10;2.60;;;1.25;;
9698;SDS011;10089;47.876;8.346;2023-07-13T15:22:44;2.72;;;1.02;;
9698;SDS011;10089;47.876;8.346;2023-07-13T15:25:15;2.55;;;1.30;;
9698;SDS011;10089;47.876;8.346;2023-07-13T15:27:49;1.40;;;1.05;;
9698;SDS011;10089;47.876;8.346;2023-07-13T15:30:19;1.25;;;1.13;;
9698;SDS011;10089;47.876;8.346;2023-07-13T15:32:45;2.63;;;1.30;;
9698;SDS011;10089;47.876;8.346;2023-07-13T15:35:16;1.10;;;0.95;;
9698;SDS011;10089;47.876;8.346;2023-07-13T15:37:44;2.78;;;1.40;;
9698;SDS011;10089;47.876;8.346;2023-07-13T15:40:10;4.35;;;1.40;;
9698;SDS011;10089;47.876;8.346;2023-07-13T15:42:38;3.17;;;1.23;;
9698;SDS011;10089;47.876;8.346;2023-07-13T15:45:13;1.70;;;1.20;;
9698;SDS011;10089;47.876;8.346;2023-07-13T15:47:45;4.00;;;1.35;;
9698;SDS011;10089;47.876;8.346;2023-07-13T15:50:12;4.65;;;1.33;;
9698;SDS011;10089;47.876;8.346;2023-07-13T15:52:43;3.90;;;1.38;;
9698;SDS011;10089;47.876;8.346;2023-07-13T15:55:12;1.95;;;1.30;;
9698;SDS011;10089;47.876;8.346;2023-07-13T15:57:40;1.25;;;1.15;;
9698;SDS011;10089;47.876;8.346;2023-07-13T16:00:16;8.48;;;1.00;;